Weather reports worldwide

Advertisment
Gravesend, United Kingdom (3784): temperature & dewpoint: 17.10.2017 03:00:00 - 23.10.2017 03:00:00 (BST)Gravesend, United Kingdom (3784): wind speed & gusts: 17.10.2017 03:00:00 - 23.10.2017 03:00:00 (BST)Gravesend, United Kingdom (3784): wind direction: 17.10.2017 03:00:00 - 23.10.2017 03:00:00 (BST)Gravesend, United Kingdom (3784): reduced air pressure: 17.10.2017 03:00:00 - 23.10.2017 03:00:00 (BST)
Date & Time tt [°C] td [°C] ff [km/h] ff [kn] fx [km/h] fx [kn] dd ppp [hPa]
23.10.2017 03:00:00 11,0 8,6 16 9 - - WSW 1018,1
23.10.2017 02:00:00 11,3 8,2 16 9 - - WSW 1018,0
23.10.2017 01:00:00 11,2 8,1 18 10 - - WSW 1017,9
23.10.2017 00:00:00 11,0 8,1 21 11 - - WSW 1018,1
22.10.2017 23:00:00 10,5 7,6 18 10 - - WSW 1018,1
22.10.2017 22:00:00 10,7 7,7 22 12 - - WSW 1017,7
22.10.2017 21:00:00 11,3 6,6 18 10 - - W 1017,0
22.10.2017 20:00:00 11,7 7,1 22 12 - - W 1016,5
22.10.2017 19:00:00 11,8 7,5 22 12 - - WSW 1015,8
22.10.2017 18:00:00 12,2 6,7 22 12 - - W 1015,0
22.10.2017 17:00:00 13,1 6,2 34 18 54 29 WSW 1014,2
22.10.2017 16:00:00 13,8 4,8 28 15 46 25 W 1013,8
22.10.2017 15:00:00 13,8 5,6 28 15 55 30 W 1013,6
22.10.2017 14:00:00 12,6 4,4 35 19 52 28 W 1013,4
22.10.2017 13:00:00 12,7 5,0 35 19 52 28 W 1013,1
22.10.2017 12:00:00 12,8 5,7 34 18 54 29 W 1012,4
22.10.2017 11:00:00 11,5 5,4 29 16 54 29 W 1011,9
22.10.2017 10:00:00 10,8 5,7 34 18 48 26 WSW 1011,3
22.10.2017 09:00:00 10,4 5,7 29 16 46 25 WSW 1010,6
22.10.2017 08:00:00 10,3 5,7 34 18 46 25 WSW 1010,0
22.10.2017 07:00:00 10,8 6,3 31 17 52 28 WSW 1009,5
22.10.2017 06:00:00 11,2 6,9 34 18 48 26 WSW 1008,8
22.10.2017 05:00:00 11,7 7,4 34 18 46 25 WSW 1007,8
22.10.2017 04:00:00 12,3 8,5 28 15 - - WSW 1006,9
22.10.2017 03:00:00 12,4 9,1 28 15 - - WSW 1006,1
22.10.2017 02:00:00 12,4 8,8 28 15 - - WSW 1005,3
22.10.2017 01:00:00 12,7 8,9 29 16 - - WSW 1004,6
22.10.2017 00:00:00 12,8 8,7 29 16 48 26 WSW 1004,1
21.10.2017 23:00:00 12,7 9,4 29 16 46 25 SW 1003,3
21.10.2017 22:00:00 12,5 9,2 26 14 48 26 SW 1002,5
21.10.2017 21:00:00 12,6 8,5 26 14 46 25 SW 1002,3
21.10.2017 20:00:00 12,7 8,5 28 15 52 28 SSW 1002,3
21.10.2017 19:00:00 12,9 7,5 31 17 55 30 SSW 1002,3
21.10.2017 18:00:00 12,6 8,2 28 15 50 27 SSW 1002,6
21.10.2017 17:00:00 13,7 7,8 28 15 57 31 SSW 1002,4
21.10.2017 16:00:00 14,7 8,4 29 16 57 31 SSW 1002,6
21.10.2017 15:00:00 15,7 7,9 37 20 67 36 SSW 1002,4
21.10.2017 14:00:00 15,3 9,4 31 17 63 34 SSW 1002,5
21.10.2017 13:00:00 14,7 9,9 34 18 61 33 SSW 1002,7
21.10.2017 12:00:00 14,4 10,2 28 15 54 29 SW 1002,9
21.10.2017 11:00:00 13,3 10,9 26 14 48 26 SSW 1003,3
21.10.2017 10:00:00 14,3 10,2 22 12 48 26 SSW 1003,4
21.10.2017 09:00:00 13,0 10,4 22 12 - - SSW 1003,2
21.10.2017 08:00:00 12,5 9,6 21 11 - - SSW 1003,3
21.10.2017 07:00:00 12,9 11,0 21 11 - - SSW 1002,9
21.10.2017 06:00:00 13,8 12,1 24 13 - - SSW 1002,9
21.10.2017 05:00:00 13,8 12,0 21 11 46 25 SSW 1002,6
21.10.2017 04:00:00 15,1 13,9 24 13 - - S 1002,3
21.10.2017 03:00:00 14,5 13,6 21 11 - - S 1002,6
21.10.2017 02:00:00 13,7 12,6 18 10 - - SSE 1003,4
21.10.2017 01:00:00 14,7 11,1 21 11 - - SSE 1004,7
21.10.2017 00:00:00 14,5 10,2 16 9 - - S 1005,5
20.10.2017 23:00:00 13,4 9,9 11 6 - - SSE 1006,4
20.10.2017 22:00:00 11,9 9,1 8 4 - - ESE 1007,8
20.10.2017 21:00:00 11,7 9,0 9 5 - - SE 1008,5
20.10.2017 20:00:00 11,1 8,5 9 5 - - S 1009,1
20.10.2017 19:00:00 10,6 6,9 8 4 - - S 1009,2
20.10.2017 18:00:00 12,4 6,5 13 7 - - SW 1009,1
20.10.2017 17:00:00 13,3 6,3 22 12 - - SSW 1008,8
20.10.2017 16:00:00 14,8 8,2 24 13 - - WSW 1008,2
20.10.2017 15:00:00 14,5 8,6 28 15 46 25 SW 1007,9
20.10.2017 14:00:00 13,9 9,2 29 16 - - WSW 1007,3
20.10.2017 13:00:00 13,8 9,8 26 14 - - SW 1006,5
20.10.2017 12:00:00 13,4 10,0 28 15 46 25 SW 1005,7
20.10.2017 11:00:00 13,3 10,5 31 17 46 25 WSW 1004,8
20.10.2017 10:00:00 13,1 10,7 28 15 48 26 SW 1003,5
20.10.2017 09:00:00 13,2 10,7 34 18 48 26 SW 1001,7
20.10.2017 08:00:00 13,0 11,0 28 15 - - SW 1000,1
20.10.2017 07:00:00 12,4 11,2 26 14 48 26 SSW 998,6
20.10.2017 06:00:00 12,7 11,5 22 12 48 26 SSW 998,1
20.10.2017 05:00:00 12,3 11,2 24 13 - - S 997,9
20.10.2017 04:00:00 12,6 10,4 21 11 - - S 998,5
20.10.2017 03:00:00 12,3 10,1 22 12 - - S 998,9
20.10.2017 02:00:00 12,7 10,6 21 11 46 25 S 999,1
20.10.2017 01:00:00 13,6 12,2 21 11 46 25 S 999,2
20.10.2017 00:00:00 13,7 12,7 18 10 - - SSE 999,1
19.10.2017 23:00:00 14,2 12,2 26 14 46 25 S 1000,2
19.10.2017 22:00:00 15,8 12,4 22 12 - - S 1000,6
19.10.2017 21:00:00 15,8 12,9 16 9 - - S 1000,8
19.10.2017 20:00:00 15,8 14,4 16 9 - - SSE 1001,4
19.10.2017 19:00:00 15,6 13,5 11 6 - - SSE 1001,7
19.10.2017 18:00:00 15,7 13,9 11 6 - - S 1002,1
19.10.2017 17:00:00 16,0 14,1 16 9 46 25 S 1002,1
19.10.2017 16:00:00 16,5 14,9 16 9 - - S 1002,1
19.10.2017 15:00:00 17,6 14,5 24 13 46 25 S 1002,1
19.10.2017 14:00:00 18,4 14,8 21 11 - - S 1002,0
19.10.2017 13:00:00 17,3 14,3 18 10 - - SSE 1003,2
19.10.2017 12:00:00 16,2 14,3 9 5 - - ESE 1004,1
19.10.2017 11:00:00 15,9 15,0 8 4 - - E 1004,7
19.10.2017 10:00:00 15,1 14,6 11 6 - - ENE 1005,4
19.10.2017 09:00:00 15,2 15,0 9 5 - - ENE 1006,0
19.10.2017 08:00:00 15,1 14,9 8 4 - - E 1006,2
19.10.2017 07:00:00 14,8 14,6 8 4 - - ESE 1006,6
19.10.2017 06:00:00 14,8 14,6 5 3 - - ESE 1007,0
19.10.2017 05:00:00 14,3 14,0 8 4 - - E 1007,3
19.10.2017 04:00:00 14,3 14,1 4 2 - - SE 1008,2
19.10.2017 03:00:00 14,2 13,8 8 4 - - SE 1009,0
19.10.2017 02:00:00 14,3 13,6 4 2 - - E 1009,2
19.10.2017 01:00:00 15,1 14,5 5 3 - - E 1009,5
19.10.2017 00:00:00 15,1 14,6 2 1 - - SE 1009,8
18.10.2017 23:00:00 15,0 14,6 5 3 - - ESE 1009,6
18.10.2017 22:00:00 14,7 14,1 5 3 - - ESE 1010,2
18.10.2017 21:00:00 15,1 14,4 8 4 - - E 1010,1
18.10.2017 20:00:00 15,2 14,5 9 5 - - E 1010,6
18.10.2017 19:00:00 15,1 14,4 8 4 - - E 1010,2
18.10.2017 18:00:00 15,3 14,3 8 4 - - NE 1009,8
18.10.2017 17:00:00 15,8 14,8 5 3 - - NE 1010,0
18.10.2017 16:00:00 15,8 14,7 4 2 - - NE 1010,1
18.10.2017 15:00:00 15,7 14,6 5 3 - - ENE 1010,5
18.10.2017 14:00:00 15,3 14,3 8 4 - - ENE 1010,6
18.10.2017 13:00:00 15,3 14,4 9 5 - - ENE 1010,9
18.10.2017 12:00:00 14,8 14,1 9 5 - - ENE 1011,5
18.10.2017 11:00:00 13,6 12,7 8 4 - - NE 1011,6
18.10.2017 10:00:00 13,0 11,7 11 6 - - NE 1011,8
18.10.2017 09:00:00 12,1 10,6 11 6 - - NE 1012,0
18.10.2017 08:00:00 12,3 9,5 11 6 - - NE 1012,1
18.10.2017 07:00:00 12,5 8,3 9 5 - - NNE 1012,2
18.10.2017 06:00:00 12,5 7,6 9 5 - - NNE 1012,5
18.10.2017 05:00:00 12,5 7,6 13 7 - - NE 1013,0
18.10.2017 04:00:00 12,5 7,3 11 6 - - NE 1013,8
18.10.2017 03:00:00 12,1 7,4 8 4 - - NE 1014,2
18.10.2017 02:00:00 11,7 7,8 11 6 - - NNE 1015,1
18.10.2017 01:00:00 10,5 8,1 4 2 - - NE 1015,3
18.10.2017 00:00:00 8,9 8,0 4 2 - - ESE 1015,9
17.10.2017 23:00:00 8,3 6,2 2 1 - - S 1016,4
17.10.2017 22:00:00 10,2 7,5 5 3 - - SSE 1016,7
17.10.2017 21:00:00 10,2 7,5 5 3 - - E 1016,7
17.10.2017 20:00:00 10,4 7,2 5 3 - - S 1017,3
17.10.2017 19:00:00 11,2 6,2 5 3 - - S 1017,4
17.10.2017 18:00:00 13,2 6,2 5 3 - - WSW 1017,4
17.10.2017 17:00:00 14,6 6,2 9 5 - - W 1017,6
17.10.2017 16:00:00 15,2 6,4 11 6 - - SW 1018,2
17.10.2017 15:00:00 15,7 6,8 13 7 - - SW 1018,6
17.10.2017 14:00:00 13,9 7,8 13 7 - - SSW 1019,5
17.10.2017 13:00:00 13,5 7,9 9 5 - - SSW 1020,3
17.10.2017 12:00:00 14,0 7,7 11 6 - - SW 1020,5
17.10.2017 11:00:00 14,3 7,8 11 6 - - SW 1020,8
17.10.2017 10:00:00 13,2 8,0 11 6 - - SW 1020,4
17.10.2017 09:00:00 11,6 7,9 9 5 - - SSW 1020,2
17.10.2017 08:00:00 10,0 7,7 13 7 - - SSW 1020,1
17.10.2017 07:00:00 10,0 7,2 9 5 - - SSW 1019,6
17.10.2017 06:00:00 11,2 7,7 13 7 - - SW 1019,1
17.10.2017 05:00:00 11,4 7,7 13 7 - - SW 1019,0
17.10.2017 04:00:00 12,1 8,4 16 9 - - SSW 1019,0
17.10.2017 03:00:00 12,1 8,4 16 9 - - SSW 1018,8

tt = temperature
td = dewpoint
ff = wind speed
fx = gusts
dd = wind direction
ppp = reduced air pressure

Next stations